Wednesday, January 17, 2018, 8:13 AM EST
Back to Local

KFME, Fort Meade / Tipton

Location: Laurel, MD, United States Lat: 39.083
Local Time: 8:13 AM EST (13:13 GMT) Lon: -76.767
Time Zone: US/Eastern Elev: 150 ft

Show me the last for .
Show Decoded

2018-01-17 07:57 METAR KFME 171257Z AUTO 31007KT 5SM SCT017 BKN041 OVC047 M03/M06 A3040 RMK AO1 =
2018-01-17 07:36 METAR KFME 171236Z AUTO 31009KT 3SM BKN019 BKN029 OVC049 M03/M05 A3039 RMK AO1 =
2018-01-17 07:15 METAR KFME 171215Z AUTO 32006G15KT 3SM SCT013 OVC020 M03/M05 A3039 RMK AO1 =
2018-01-17 06:57 METAR KFME 171157Z AUTO 31008KT 1 1/4SM OVC012 M02/M04 A3039 RMK AO1 =
2018-01-17 06:36 METAR KFME 171136Z AUTO 31008KT 1 1/2SM OVC010 M02/M03 A3040 RMK AO1 =
2018-01-17 06:15 METAR KFME 171115Z AUTO 30008KT 3/4SM OVC008 M01/M02 A3039 RMK AO1 =
2018-01-17 05:57 METAR KFME 171057Z AUTO 30006KT 3/4SM OVC008 M01/M02 A3038 RMK AO1 =
2018-01-17 05:36 METAR KFME 171036Z AUTO 31007KT 1 1/2SM BKN008 OVC017 M01/M02 A3037 RMK AO1 =
2018-01-17 05:15 METAR KFME 171015Z AUTO 30003KT 1 1/4SM BKN008 OVC015 M01/M01 A3035 RMK AO1 =
2018-01-17 04:57 METAR KFME 170957Z AUTO 30003KT 1 1/2SM BKN008 OVC018 00/M01 A3034 RMK AO1 =
2018-01-17 04:36 METAR KFME 170936Z AUTO 31004KT 1 3/4SM BKN010 OVC015 00/M01 A3035 RMK AO1 =
2018-01-17 04:15 METAR KFME 170915Z AUTO 31003KT 1 3/4SM OVC010 00/M01 A3035 RMK AO1 =
2018-01-17 03:57 METAR KFME 170857Z AUTO 31003KT 1 1/2SM OVC010 00/M01 A3034 RMK AO1 =
2018-01-17 03:36 METAR KFME 170836Z AUTO 31005KT 1 3/4SM OVC010 00/M01 A3034 RMK AO1 =
2018-01-17 03:15 METAR KFME 170815Z AUTO 31003KT 2 1/2SM OVC014 00/M01 A3034 RMK AO1 =
2018-01-17 02:57 METAR KFME 170757Z AUTO 31003KT 3SM BKN014 BKN023 OVC044 00/M01 A3035 RMK AO1 =
2018-01-17 02:36 METAR KFME 170736Z AUTO 29003KT 4SM OVC044 00/M01 A3034 RMK AO1 =
2018-01-17 02:15 METAR KFME 170715Z AUTO 31004KT 7SM SCT027 OVC044 00/M01 A3034 RMK AO1 =
2018-01-17 01:57 METAR KFME 170657Z AUTO 30004KT 7SM BKN046 BKN070 OVC100 00/M01 A3034 RMK AO1 =
2018-01-17 01:36 METAR KFME 170636Z AUTO 00000KT 10SM SCT060 SCT080 OVC100 00/M01 A3032 RMK AO1 =
2018-01-17 01:15 METAR KFME 170615Z AUTO 31005KT 10SM BKN060 OVC080 00/M02 A3033 RMK AO1 =
2018-01-17 00:57 METAR KFME 170557Z AUTO 31007KT 290V350 10SM SCT050 OVC070 00/M02 A3034 RMK AO1
                 =
2018-01-17 00:36 METAR KFME 170536Z AUTO 32004KT 10SM SCT037 BKN048 OVC060 00/M02 A3034 RMK AO1 =
2018-01-17 00:15 METAR KFME 170515Z AUTO 32004KT 10SM OVC037 00/M02 A3035 RMK AO1 =
2018-01-16 23:57 METAR KFME 170457Z AUTO 31003KT 10SM BKN041 OVC048 00/M02 A3036 RMK AO1 =
2018-01-16 23:36 METAR KFME 170436Z AUTO 00000KT 10SM OVC050 00/M02 A3036 RMK AO1 =
2018-01-16 23:15 METAR KFME 170415Z AUTO 00000KT 10SM OVC065 00/M02 A3036 RMK AO1 =
2018-01-16 22:57 METAR KFME 170357Z AUTO 00000KT 10SM OVC065 00/M02 A3036 RMK AO1 =
2018-01-16 22:36 METAR KFME 170336Z AUTO 00000KT 10SM BKN065 OVC085 00/M02 A3037 RMK AO1 =
2018-01-16 22:15 METAR KFME 170315Z AUTO 00000KT 10SM BKN085 00/M02 A3037 RMK AO1 =
2018-01-16 21:57 METAR KFME 170257Z AUTO 00000KT 10SM BKN085 BKN110 00/M02 A3037 RMK AO1 =
2018-01-16 21:36 METAR KFME 170236Z AUTO 00000KT 10SM SCT085 BKN100 M01/M02 A3037 RMK AO1 =
2018-01-16 21:15 METAR KFME 170215Z AUTO 00000KT 10SM BKN100 M01/M02 A3038 RMK AO1 =
2018-01-16 20:57 METAR KFME 170157Z AUTO 00000KT 10SM BKN110 M01/M03 A3037 RMK AO1 =
2018-01-16 20:36 METAR KFME 170136Z AUTO 00000KT 10SM BKN120 M01/M02 A3038 RMK AO1 =
2018-01-16 20:15 METAR KFME 170115Z AUTO 10003KT 10SM SCT120 M01/M03 A3038 RMK AO1 =
2018-01-16 19:57 METAR KFME 170057Z AUTO 00000KT 10SM CLR M01/M02 A3038 RMK AO1 =
2018-01-16 19:36 METAR KFME 170036Z AUTO 00000KT 10SM CLR M01/M03 A3038 RMK AO1 =
2018-01-16 19:15 METAR KFME 170015Z AUTO 00000KT 10SM CLR 00/M02 A3038 RMK AO1 =
2018-01-16 18:57 METAR KFME 162357Z AUTO 00000KT 10SM CLR 00/M02 A3039 RMK AO1 =
2018-01-16 18:36 METAR KFME 162336Z AUTO 00000KT 10SM CLR 00/M03 A3038 RMK AO1 =
2018-01-16 18:15 METAR KFME 162315Z AUTO 00000KT 10SM CLR 00/M03 A3038 RMK AO1 =
2018-01-16 17:57 METAR KFME 162257Z AUTO 00000KT 10SM CLR 00/M02 A3038 RMK AO1 =
2018-01-16 17:36 METAR KFME 162236Z AUTO 00000KT 10SM CLR 00/M02 A3039 RMK AO1 =
2018-01-16 17:15 METAR KFME 162215Z AUTO 00000KT 10SM CLR 01/M02 A3038 RMK AO1 =
2018-01-16 16:57 METAR KFME 162157Z AUTO 00000KT 10SM CLR 02/M02 A3039 RMK AO1 =
2018-01-16 16:36 METAR KFME 162136Z AUTO 08003KT 10SM CLR 02/M02 A3038 RMK AO1 =
2018-01-16 16:15 METAR KFME 162115Z AUTO 00000KT 10SM CLR 03/M03 A3038 RMK AO1 =
2018-01-16 15:57 METAR KFME 162057Z AUTO 00000KT 10SM CLR 03/M04 A3038 RMK AO1 =
2018-01-16 15:36 METAR KFME 162036Z AUTO 00000KT 10SM CLR 04/M04 A3038 RMK AO1 =
2018-01-16 15:15 METAR KFME 162015Z AUTO 14003KT 10SM CLR 04/M04 A3039 RMK AO1 =
2018-01-16 14:57 METAR KFME 161957Z AUTO 10004KT 10SM CLR 03/M03 A3039 RMK AO1 =
2018-01-16 14:36 METAR KFME 161936Z AUTO 00000KT 10SM CLR 03/M03 A3039 RMK AO1 =
2018-01-16 14:15 METAR KFME 161915Z AUTO 00000KT 10SM CLR 03/M03 A3040 RMK AO1 =
2018-01-16 13:57 METAR KFME 161857Z AUTO 18003KT 10SM CLR 03/M03 A3041 RMK AO1 =
2018-01-16 13:36 METAR KFME 161836Z AUTO 00000KT 10SM CLR 03/M02 A3042 RMK AO1 =
2018-01-16 13:15 METAR KFME 161815Z AUTO 17003KT 10SM CLR 02/M02 A3043 RMK AO1 =
2018-01-16 12:57 METAR KFME 161757Z AUTO 00000KT 10SM CLR 02/M02 A3044 RMK AO1 =
2018-01-16 12:36 METAR KFME 161736Z AUTO 22003KT 10SM CLR 01/M02 A3044 RMK AO1 =
2018-01-16 12:15 METAR KFME 161715Z AUTO 00000KT 10SM CLR 01/M02 A3045 RMK AO1 =
2018-01-16 11:57 METAR KFME 161657Z AUTO 00000KT 10SM SCT010 01/M02 A3047 RMK AO1 =
2018-01-16 11:36 METAR KFME 161636Z AUTO 00000KT 10SM OVC008 00/M02 A3048 RMK AO1 =
2018-01-16 11:15 METAR KFME 161615Z AUTO 00000KT 10SM OVC008 00/M02 A3049 RMK AO1 =
2018-01-16 10:57 METAR KFME 161557Z AUTO 15003KT 10SM OVC008 00/M02 A3050 RMK AO1 =
2018-01-16 10:36 METAR KFME 161536Z AUTO 18003KT 10SM OVC006 M01/M02 A3050 RMK AO1 =
2018-01-16 10:15 METAR KFME 161515Z AUTO 00000KT 7SM OVC004 M01/M02 A3051 RMK AO1 =
2018-01-16 09:57 METAR KFME 161457Z AUTO 20003KT 7SM OVC004 M01/M02 A3051 RMK AO1 =
2018-01-16 09:36 METAR KFME 161436Z AUTO 00000KT 7SM OVC004 M01/M02 A3052 RMK AO1 =
2018-01-16 09:15 METAR KFME 161415Z AUTO 19003KT 7SM OVC004 M01/M02 A3052 RMK AO1 =
2018-01-16 08:57 METAR KFME 161357Z AUTO 00000KT 5SM OVC004 M01/M02 A3051 RMK AO1 =
2018-01-16 08:36 METAR KFME 161336Z AUTO 00000KT 4SM OVC004 M01/M02 A3052 RMK AO1 =
2018-01-16 08:15 METAR KFME 161315Z AUTO 00000KT 5SM OVC004 M01/M02 A3051 RMK AO1 =

Support USWX by starting your Amazon purchase here.